createdAt,value
2023-04-27T00:00:01.326Z,5.40
2023-04-27T00:02:29.550Z,5.30
2023-04-27T00:04:59.291Z,5.10
2023-04-27T00:07:27.582Z,5.57
2023-04-27T00:09:55.853Z,5.33
2023-04-27T00:12:24.325Z,5.30
2023-04-27T00:14:52.595Z,5.27
2023-04-27T00:17:20.748Z,5.30
2023-04-27T00:19:48.809Z,5.63
2023-04-27T00:22:18.251Z,5.40
2023-04-27T00:24:46.249Z,5.47
2023-04-27T00:27:14.242Z,6.37
2023-04-27T00:29:43.063Z,5.53
2023-04-27T00:32:11.283Z,5.37
2023-04-27T00:34:39.694Z,5.73
2023-04-27T00:37:07.838Z,5.90
2023-04-27T00:39:37.322Z,5.80
2023-04-27T00:42:06.051Z,5.20
2023-04-27T00:44:34.287Z,5.63
2023-04-27T00:47:03.540Z,5.30
2023-04-27T00:49:32.056Z,5.47
2023-04-27T00:52:01.141Z,5.63
2023-04-27T00:54:29.280Z,5.60
2023-04-27T00:56:59.514Z,5.93
2023-04-27T00:59:27.675Z,5.00
2023-04-27T01:01:57.065Z,6.13
2023-04-27T01:04:25.332Z,6.00
2023-04-27T01:06:53.642Z,7.23
2023-04-27T01:09:21.969Z,7.10
2023-04-27T01:11:51.326Z,7.60
2023-04-27T01:14:21.154Z,7.03
2023-04-27T01:16:49.958Z,6.53
2023-04-27T01:19:18.045Z,6.90
2023-04-27T01:21:46.530Z,6.37
2023-04-27T01:24:16.740Z,6.13
2023-04-27T01:26:44.755Z,6.47
2023-04-27T01:29:13.286Z,6.20
2023-04-27T01:31:42.835Z,6.33
2023-04-27T01:34:10.940Z,6.43
2023-04-27T01:36:38.936Z,6.10
2023-04-27T01:39:09.368Z,6.60
2023-04-27T01:41:38.880Z,6.43
2023-04-27T01:44:07.012Z,5.53
2023-04-27T01:46:35.364Z,6.30
2023-04-27T01:49:03.689Z,5.70
2023-04-27T01:51:32.872Z,6.27
2023-04-27T01:54:01.087Z,7.00
2023-04-27T01:56:29.159Z,7.57
2023-04-27T01:58:58.742Z,8.67
2023-04-27T02:01:27.035Z,7.83
2023-04-27T02:03:55.346Z,7.87
2023-04-27T02:06:23.512Z,7.50
2023-04-27T02:08:51.675Z,7.27
2023-04-27T02:11:19.820Z,7.73
2023-04-27T02:13:48.896Z,7.57
2023-04-27T02:16:18.439Z,6.63
2023-04-27T02:18:46.941Z,6.40
2023-04-27T02:21:14.944Z,6.63
2023-04-27T02:23:42.920Z,6.93
2023-04-27T02:26:18.050Z,7.53
2023-04-27T02:28:46.361Z,12.40
2023-04-27T02:31:16.707Z,11.63
2023-04-27T02:33:46.150Z,10.27
2023-04-27T02:36:14.201Z,11.37
2023-04-27T02:38:42.248Z,9.93
2023-04-27T02:41:11.506Z,10.07
2023-04-27T02:43:39.567Z,9.20
2023-04-27T02:46:08.433Z,9.23
2023-04-27T02:48:36.484Z,9.10
2023-04-27T02:51:08.001Z,9.47
2023-04-27T02:53:36.368Z,8.83
2023-04-27T02:56:04.638Z,7.57
2023-04-27T02:58:32.729Z,8.03
2023-04-27T03:01:01.094Z,8.27
2023-04-27T03:03:29.386Z,8.13
2023-04-27T03:05:57.456Z,9.17
2023-04-27T03:08:27.202Z,8.67
2023-04-27T03:10:55.283Z,8.60
2023-04-27T03:13:23.358Z,9.43
2023-04-27T03:15:51.450Z,8.43
2023-04-27T03:18:21.225Z,8.27
2023-04-27T03:20:49.440Z,8.30
2023-04-27T03:23:17.517Z,8.53
2023-04-27T03:25:48.796Z,9.20
2023-04-27T03:28:16.928Z,10.77
2023-04-27T03:30:45.011Z,10.00
2023-04-27T03:33:13.162Z,9.83
2023-04-27T03:35:41.196Z,10.90
2023-04-27T03:38:09.290Z,10.70
2023-04-27T03:40:37.257Z,9.73
2023-04-27T03:43:06.935Z,9.33
2023-04-27T03:45:35.173Z,9.53
2023-04-27T03:48:03.289Z,9.60
2023-04-27T03:50:31.400Z,9.07
2023-04-27T03:52:59.386Z,9.07
2023-04-27T03:55:27.560Z,10.10
2023-04-27T03:57:55.776Z,9.90
2023-04-27T04:00:25.871Z,10.00
2023-04-27T04:02:54.878Z,10.37
2023-04-27T04:05:23.816Z,10.73
2023-04-27T04:07:51.968Z,10.33
2023-04-27T04:10:20.245Z,10.60
2023-04-27T04:12:49.723Z,11.00
2023-04-27T04:15:18.765Z,11.50
2023-04-27T04:17:49.339Z,11.10
2023-04-27T04:20:18.312Z,12.30
2023-04-27T04:22:46.417Z,12.37
2023-04-27T04:25:14.507Z,12.53
2023-04-27T04:27:43.045Z,12.30
2023-04-27T04:30:12.759Z,13.30
2023-04-27T04:32:41.590Z,13.87
2023-04-27T04:35:12.783Z,13.27
2023-04-27T04:37:41.117Z,14.33
2023-04-27T04:40:10.910Z,13.13
2023-04-27T04:42:40.205Z,13.40
2023-04-27T04:45:11.127Z,13.57
2023-04-27T04:47:39.670Z,13.60
2023-04-27T04:50:13.163Z,13.10
2023-04-27T04:52:41.344Z,13.20
2023-04-27T04:55:10.478Z,12.27
2023-04-27T04:57:38.856Z,12.40
2023-04-27T05:00:11.457Z,11.83
2023-04-27T05:02:40.123Z,11.90
2023-04-27T05:05:09.250Z,11.47
2023-04-27T05:07:38.647Z,12.27
2023-04-27T05:10:07.531Z,11.30
2023-04-27T05:12:35.699Z,11.00
2023-04-27T05:15:04.074Z,11.93
2023-04-27T05:17:32.140Z,11.60
2023-04-27T05:20:00.924Z,10.93
2023-04-27T05:22:29.014Z,10.70
2023-04-27T05:24:59.154Z,10.97
2023-04-27T05:27:27.721Z,10.17
2023-04-27T05:30:30.852Z,10.17
2023-04-27T05:32:58.888Z,10.47
2023-04-27T05:35:26.969Z,9.80
2023-04-27T05:37:54.998Z,10.23
2023-04-27T05:40:24.702Z,9.53
2023-04-27T05:42:52.972Z,9.63
2023-04-27T05:45:21.075Z,8.90
2023-04-27T05:47:49.167Z,10.07
2023-04-27T05:50:17.262Z,9.33
2023-04-27T05:52:45.260Z,9.80
2023-04-27T05:55:13.524Z,8.80
2023-04-27T05:57:42.954Z,9.13
2023-04-27T06:00:12.719Z,9.53
2023-04-27T06:02:41.182Z,8.40
2023-04-27T06:05:10.194Z,9.03
2023-04-27T06:07:38.450Z,9.07
2023-04-27T06:10:07.699Z,9.37
2023-04-27T06:12:35.796Z,8.10
2023-04-27T06:15:08.526Z,8.10
2023-04-27T06:17:36.693Z,7.57
2023-04-27T06:20:06.845Z,8.23
2023-04-27T06:22:35.098Z,7.73
2023-04-27T06:25:03.380Z,7.53
2023-04-27T06:27:31.818Z,7.80
2023-04-27T06:29:59.941Z,6.90
2023-04-27T06:32:29.440Z,7.23
2023-04-27T06:34:57.688Z,6.67
2023-04-27T06:37:26.385Z,6.00
2023-04-27T06:39:54.608Z,6.40
2023-04-27T06:42:22.609Z,6.43
2023-04-27T06:44:50.604Z,6.67
2023-04-27T06:47:18.602Z,5.73
2023-04-27T06:49:49.625Z,5.53
2023-04-27T06:52:18.177Z,5.83
2023-04-27T06:54:46.440Z,5.20
2023-04-27T06:57:14.460Z,5.50
2023-04-27T06:59:42.483Z,5.37
2023-04-27T07:02:10.806Z,5.13
2023-04-27T07:04:38.990Z,4.97
2023-04-27T07:07:08.562Z,5.07
2023-04-27T07:09:37.481Z,4.30
2023-04-27T07:12:05.734Z,4.43
2023-04-27T07:14:34.572Z,4.67
2023-04-27T07:17:02.591Z,4.60
2023-04-27T07:19:30.604Z,4.10
2023-04-27T07:21:58.696Z,4.07
2023-04-27T07:24:28.070Z,3.80
2023-04-27T07:26:57.743Z,4.30
2023-04-27T07:29:28.310Z,3.43
2023-04-27T07:31:56.834Z,3.40
2023-04-27T07:34:25.044Z,3.30
2023-04-27T07:36:55.023Z,3.30
2023-04-27T07:39:23.978Z,3.37
2023-04-27T07:41:53.525Z,3.10
2023-04-27T07:44:21.919Z,3.50
2023-04-27T07:46:50.183Z,3.67
2023-04-27T07:49:18.470Z,2.90
2023-04-27T07:51:46.602Z,2.97
2023-04-27T07:54:14.995Z,2.50
2023-04-27T07:56:44.052Z,2.57
2023-04-27T07:59:14.914Z,2.70
2023-04-27T08:01:43.367Z,2.80
2023-04-27T08:04:12.589Z,3.20
2023-04-27T08:06:41.343Z,3.23
2023-04-27T08:09:10.273Z,3.30
2023-04-27T08:11:38.388Z,2.90
2023-04-27T08:14:09.013Z,3.43
2023-04-27T08:16:38.788Z,3.63
2023-04-27T08:19:07.107Z,3.33
2023-04-27T08:21:35.217Z,3.30
2023-04-27T08:24:03.729Z,3.33
2023-04-27T08:26:31.866Z,3.60
2023-04-27T08:29:00.116Z,3.40
2023-04-27T08:31:28.291Z,2.80
2023-04-27T08:33:58.816Z,2.87
2023-04-27T08:36:28.753Z,3.10
2023-04-27T08:38:56.809Z,2.90
2023-04-27T08:41:25.631Z,2.70
2023-04-27T08:43:54.003Z,2.70
2023-04-27T08:46:22.824Z,3.13
2023-04-27T08:48:52.199Z,2.63
2023-04-27T08:51:22.690Z,3.40
2023-04-27T08:53:52.807Z,2.57
2023-04-27T08:56:23.426Z,3.10
2023-04-27T08:58:51.456Z,2.80
2023-04-27T09:01:19.873Z,2.60
2023-04-27T09:03:48.794Z,2.60
2023-04-27T09:06:17.572Z,2.70
2023-04-27T09:08:48.590Z,2.80
2023-04-27T09:11:17.761Z,2.40
2023-04-27T09:13:46.261Z,2.70
2023-04-27T09:16:15.287Z,2.37
2023-04-27T09:18:45.134Z,2.30
2023-04-27T09:21:23.710Z,2.47
2023-04-27T09:23:53.716Z,2.47
2023-04-27T09:26:23.027Z,2.20
2023-04-27T09:28:53.030Z,2.40
2023-04-27T09:31:21.462Z,2.20
2023-04-27T09:33:57.893Z,2.13
2023-04-27T09:36:26.754Z,1.97
2023-04-27T09:38:56.110Z,2.17
2023-04-27T09:41:24.303Z,2.00
2023-04-27T09:43:55.184Z,2.23
2023-04-27T09:46:25.191Z,2.40
2023-04-27T09:48:53.749Z,2.07
2023-04-27T09:51:23.037Z,2.60
2023-04-27T09:53:53.978Z,2.20
2023-04-27T09:56:33.480Z,2.63
2023-04-27T09:59:15.252Z,2.80
2023-04-27T10:01:47.971Z,2.90
2023-04-27T10:04:35.483Z,3.10
2023-04-27T10:07:04.852Z,2.90
2023-04-27T10:09:37.659Z,2.73
2023-04-27T10:12:18.226Z,3.13
2023-04-27T10:14:54.548Z,3.30
2023-04-27T10:17:27.627Z,3.17
2023-04-27T10:20:00.475Z,2.97
2023-04-27T10:22:41.725Z,3.27
2023-04-27T10:25:18.880Z,2.83
2023-04-27T10:27:53.067Z,2.60
2023-04-27T10:30:22.946Z,2.97
2023-04-27T10:32:53.418Z,2.60
2023-04-27T10:35:22.512Z,2.87
2023-04-27T10:37:52.083Z,2.50
2023-04-27T10:40:20.159Z,2.97
2023-04-27T10:42:49.650Z,3.33
2023-04-27T10:45:31.459Z,3.70
2023-04-27T10:48:01.915Z,3.13
2023-04-27T10:50:31.425Z,2.87
2023-04-27T10:53:02.765Z,3.20
2023-04-27T10:55:31.847Z,3.00
2023-04-27T10:58:00.283Z,3.10
2023-04-27T11:00:33.632Z,2.70
2023-04-27T11:03:13.320Z,3.00
2023-04-27T11:05:43.265Z,2.90
2023-04-27T11:08:13.968Z,3.00
2023-04-27T11:10:44.883Z,2.97
2023-04-27T11:13:14.241Z,2.80
2023-04-27T11:15:48.869Z,2.70
2023-04-27T11:18:18.013Z,2.20
2023-04-27T11:20:48.107Z,2.80
2023-04-27T11:23:25.219Z,2.23
2023-04-27T11:25:53.517Z,2.30
2023-04-27T11:28:22.085Z,2.43
2023-04-27T11:30:58.618Z,2.30
2023-04-27T11:33:27.014Z,2.40
2023-04-27T11:35:56.427Z,2.40
2023-04-27T11:38:24.644Z,1.93
2023-04-27T11:41:01.325Z,2.20
2023-04-27T11:43:29.665Z,2.17
2023-04-27T11:45:59.582Z,1.90
2023-04-27T11:48:29.421Z,1.90
2023-04-27T11:51:01.258Z,2.00
2023-04-27T11:53:34.088Z,2.20
2023-04-27T11:56:05.340Z,2.00
2023-04-27T11:58:36.021Z,2.40
2023-04-27T12:01:12.186Z,2.00
2023-04-27T12:03:41.324Z,2.00
2023-04-27T12:06:27.494Z,1.63
2023-04-27T12:08:58.216Z,1.93
2023-04-27T12:11:27.972Z,2.33
2023-04-27T12:13:58.773Z,2.40
2023-04-27T12:16:28.904Z,2.27
2023-04-27T12:18:56.957Z,2.30
2023-04-27T12:21:25.002Z,2.27
2023-04-27T12:23:53.013Z,3.30
2023-04-27T12:26:21.527Z,3.17
2023-04-27T12:28:49.637Z,2.30
2023-04-27T12:31:18.815Z,1.90
2023-04-27T12:33:49.200Z,1.87
2023-04-27T12:36:17.357Z,2.00
2023-04-27T12:38:45.389Z,1.83
2023-04-27T12:41:13.355Z,2.10
2023-04-27T12:43:42.719Z,2.20
2023-04-27T12:46:11.514Z,2.30
2023-04-27T12:48:39.603Z,1.97
2023-04-27T12:51:09.020Z,2.10
2023-04-27T12:53:36.989Z,1.93
2023-04-27T12:56:05.445Z,2.30
2023-04-27T12:58:33.506Z,3.10
2023-04-27T13:01:01.897Z,2.17
2023-04-27T13:03:30.116Z,1.90
2023-04-27T13:05:58.355Z,2.20
2023-04-27T13:08:27.822Z,2.00
2023-04-27T13:10:55.889Z,2.00
2023-04-27T13:13:23.900Z,2.10
2023-04-27T13:15:51.925Z,2.27
2023-04-27T13:18:20.374Z,2.50
2023-04-27T13:20:49.212Z,2.00
2023-04-27T13:23:17.348Z,2.13
2023-04-27T13:25:46.754Z,1.90
2023-04-27T13:28:14.978Z,1.87
2023-04-27T13:30:43.049Z,2.27
2023-04-27T13:33:22.525Z,2.10
2023-04-27T13:35:52.086Z,1.90
2023-04-27T13:38:20.286Z,1.97
2023-04-27T13:40:49.844Z,1.90
2023-04-27T13:43:17.983Z,2.00
2023-04-27T13:45:46.356Z,1.80
2023-04-27T13:48:14.476Z,2.20
2023-04-27T13:50:42.583Z,1.87
2023-04-27T13:53:11.843Z,2.10
2023-04-27T13:55:39.962Z,1.77
2023-04-27T13:58:10.869Z,1.80
2023-04-27T14:00:39.054Z,1.97
2023-04-27T14:03:09.020Z,2.10
2023-04-27T14:05:37.169Z,1.97
2023-04-27T14:08:05.641Z,1.83
2023-04-27T14:10:33.709Z,2.17
2023-04-27T14:13:01.678Z,2.20
2023-04-27T14:15:31.331Z,2.40
2023-04-27T14:17:59.373Z,2.10
2023-04-27T14:20:28.375Z,1.97
2023-04-27T14:22:58.384Z,2.00
2023-04-27T14:25:27.342Z,1.90
2023-04-27T14:27:55.506Z,1.90
2023-04-27T14:30:23.662Z,1.57
2023-04-27T14:32:53.458Z,1.90
2023-04-27T14:35:23.650Z,2.00
2023-04-27T14:37:52.076Z,2.23
2023-04-27T14:40:20.777Z,2.00
2023-04-27T14:42:50.834Z,2.10
2023-04-27T14:45:19.024Z,2.17
2023-04-27T14:47:47.075Z,2.40
2023-04-27T14:50:16.469Z,2.67
2023-04-27T14:52:44.571Z,1.87
2023-04-27T14:55:13.639Z,2.03
2023-04-27T14:57:41.715Z,2.47
2023-04-27T15:00:11.107Z,2.27
2023-04-27T15:02:39.580Z,2.43
2023-04-27T15:05:08.045Z,2.70
2023-04-27T15:07:37.513Z,2.87
2023-04-27T15:10:06.368Z,2.40
2023-04-27T15:12:34.494Z,2.27
2023-04-27T15:15:02.492Z,2.53
2023-04-27T15:17:30.632Z,3.37
2023-04-27T15:19:58.654Z,2.60
2023-04-27T15:22:27.770Z,2.30
2023-04-27T15:24:57.275Z,3.00
2023-04-27T15:27:27.197Z,2.33
2023-04-27T15:29:57.601Z,2.70
2023-04-27T15:32:30.580Z,2.37
2023-04-27T15:34:59.582Z,2.53
2023-04-27T15:37:28.835Z,2.57
2023-04-27T15:39:58.627Z,2.90
2023-04-27T15:42:27.042Z,2.73
2023-04-27T15:44:55.164Z,3.13
2023-04-27T15:47:23.124Z,2.77
2023-04-27T15:49:57.445Z,3.03
2023-04-27T15:52:26.902Z,3.07
2023-04-27T15:54:55.658Z,2.60
2023-04-27T15:57:25.139Z,2.40
2023-04-27T15:59:53.154Z,2.30
2023-04-27T16:02:21.513Z,2.37
2023-04-27T16:04:50.110Z,2.50
2023-04-27T16:07:18.082Z,2.93
2023-04-27T16:09:46.185Z,2.73
2023-04-27T16:12:14.227Z,2.77
2023-04-27T16:14:43.669Z,3.10
2023-04-27T16:17:11.748Z,3.53
2023-04-27T16:19:39.758Z,2.40
2023-04-27T16:22:08.100Z,2.37
2023-04-27T16:24:36.289Z,3.20
2023-04-27T16:27:04.665Z,2.90
2023-04-27T16:29:32.796Z,3.40
2023-04-27T16:32:02.516Z,2.60
2023-04-27T16:34:30.778Z,3.20
2023-04-27T16:36:58.824Z,3.17
2023-04-27T16:39:27.106Z,2.90
2023-04-27T16:41:55.264Z,2.93
2023-04-27T16:44:24.499Z,3.20
2023-04-27T16:46:52.549Z,3.00
2023-04-27T16:49:21.887Z,3.40
2023-04-27T16:51:49.926Z,3.50
2023-04-27T16:54:18.034Z,3.00
2023-04-27T16:56:48.055Z,3.40
2023-04-27T16:59:17.214Z,3.13
2023-04-27T17:01:45.421Z,4.50
2023-04-27T17:04:13.825Z,4.80
2023-04-27T17:06:47.099Z,4.07
2023-04-27T17:09:15.512Z,4.67
2023-04-27T17:11:43.851Z,3.80
2023-04-27T17:14:11.875Z,3.90
2023-04-27T17:16:39.938Z,4.70
2023-04-27T17:19:08.133Z,6.10
2023-04-27T17:21:36.142Z,3.80
2023-04-27T17:24:06.509Z,3.60
2023-04-27T17:26:34.768Z,4.00
2023-04-27T17:29:02.947Z,5.40
2023-04-27T17:31:31.131Z,4.30
2023-04-27T17:33:59.299Z,4.83
2023-04-27T17:36:27.834Z,5.10
2023-04-27T17:38:55.967Z,4.70
2023-04-27T17:41:27.175Z,4.80
2023-04-27T17:43:55.221Z,5.00
2023-04-27T17:46:23.258Z,5.00
2023-04-27T17:48:51.534Z,5.93
2023-04-27T17:51:19.545Z,5.30
2023-04-27T17:53:47.603Z,5.73
2023-04-27T17:56:18.368Z,8.90
2023-04-27T17:58:47.763Z,8.93
2023-04-27T18:01:15.820Z,12.13
2023-04-27T18:03:43.881Z,12.73
2023-04-27T18:06:12.159Z,14.47
2023-04-27T18:08:40.247Z,14.53
2023-04-27T18:11:08.516Z,12.40
2023-04-27T18:13:36.660Z,10.47
2023-04-27T18:16:06.566Z,10.50
2023-04-27T18:18:34.590Z,10.33
2023-04-27T18:21:02.967Z,7.60
2023-04-27T18:23:31.203Z,8.80
2023-04-27T18:26:00.042Z,8.43
2023-04-27T18:28:28.103Z,8.00
2023-04-27T18:30:56.212Z,6.90
2023-04-27T18:33:25.865Z,6.30
2023-04-27T18:35:53.926Z,6.23
2023-04-27T18:38:22.012Z,7.40
2023-04-27T18:40:50.000Z,9.23
2023-04-27T18:43:18.067Z,9.97
2023-04-27T18:45:46.021Z,12.17
2023-04-27T18:48:13.962Z,14.27
2023-04-27T18:50:43.337Z,19.87
2023-04-27T18:53:11.297Z,22.00
2023-04-27T18:55:40.567Z,21.17
2023-04-27T18:58:08.715Z,16.20
2023-04-27T19:00:38.631Z,16.03
2023-04-27T19:03:07.136Z,14.23
2023-04-27T19:05:36.345Z,11.57
2023-04-27T19:08:05.900Z,11.20
2023-04-27T19:10:33.830Z,13.43
2023-04-27T19:13:01.895Z,12.80
2023-04-27T19:15:30.057Z,12.87
2023-04-27T19:18:07.087Z,12.13
2023-04-27T19:20:38.740Z,12.00
2023-04-27T19:23:09.309Z,10.27
2023-04-27T19:25:37.759Z,10.83
2023-04-27T19:28:06.165Z,9.43
2023-04-27T19:30:34.260Z,10.63
2023-04-27T19:33:02.513Z,10.00
2023-04-27T19:35:30.637Z,10.93
2023-04-27T19:37:58.674Z,10.47
2023-04-27T19:40:28.030Z,10.90
2023-04-27T19:42:56.027Z,11.50
2023-04-27T19:45:23.994Z,13.37
2023-04-27T19:47:54.026Z,13.83
2023-04-27T19:50:22.453Z,13.47
2023-04-27T19:52:50.456Z,14.03
2023-04-27T19:55:18.796Z,14.27
2023-04-27T19:57:52.284Z,12.87
2023-04-27T20:00:20.552Z,13.27
2023-04-27T20:02:48.640Z,11.80
2023-04-27T20:05:16.934Z,11.87
2023-04-27T20:07:45.271Z,11.00
2023-04-27T20:10:13.312Z,10.30
2023-04-27T20:12:55.192Z,9.73
2023-04-27T20:15:26.140Z,9.70
2023-04-27T20:17:54.537Z,8.93
2023-04-27T20:20:22.816Z,9.33
2023-04-27T20:22:51.288Z,8.90
2023-04-27T20:25:19.620Z,9.60
2023-04-27T20:27:47.685Z,9.03
2023-04-27T20:30:16.018Z,9.50
2023-04-27T20:32:46.439Z,9.20
2023-04-27T20:35:14.813Z,9.93
2023-04-27T20:37:43.492Z,9.20
2023-04-27T20:40:14.236Z,9.00
2023-04-27T20:42:43.493Z,9.43
2023-04-27T20:45:12.295Z,9.10
2023-04-27T20:47:40.388Z,8.30
2023-04-27T20:50:10.340Z,8.80
2023-04-27T20:52:38.350Z,8.57
2023-04-27T20:55:07.064Z,8.47
2023-04-27T20:57:35.234Z,8.27
2023-04-27T21:00:03.896Z,8.10
2023-04-27T21:02:31.884Z,8.50
2023-04-27T21:04:59.961Z,8.53
2023-04-27T21:07:29.420Z,8.77
2023-04-27T21:09:57.422Z,9.43
2023-04-27T21:12:25.401Z,9.13
2023-04-27T21:14:53.357Z,9.60
2023-04-27T21:17:21.596Z,10.43
2023-04-27T21:19:49.519Z,10.87
2023-04-27T21:22:17.429Z,11.40
2023-04-27T21:24:47.493Z,11.30
2023-04-27T21:27:15.535Z,14.37
2023-04-27T21:29:43.499Z,17.40
2023-04-27T21:32:11.498Z,16.23
2023-04-27T21:34:39.663Z,17.63
2023-04-27T21:37:08.812Z,16.70
2023-04-27T21:39:36.917Z,16.40
2023-04-27T21:42:06.392Z,15.73
2023-04-27T21:44:34.397Z,16.37
2023-04-27T21:47:02.395Z,16.93
2023-04-27T21:49:30.431Z,15.73
2023-04-27T21:51:58.480Z,16.30
2023-04-27T21:54:26.482Z,16.93
2023-04-27T21:56:54.469Z,15.60
2023-04-27T21:59:23.818Z,14.87
2023-04-27T22:01:52.217Z,14.77
2023-04-27T22:04:20.921Z,14.27
2023-04-27T22:06:49.424Z,14.57
2023-04-27T22:09:17.568Z,12.93
2023-04-27T22:11:46.516Z,13.50
2023-04-27T22:14:14.805Z,14.33
2023-04-27T22:16:44.353Z,18.30
2023-04-27T22:19:12.618Z,21.53
2023-04-27T22:21:40.587Z,21.00
2023-04-27T22:24:08.922Z,17.60
2023-04-27T22:26:36.914Z,18.07
2023-04-27T22:29:04.978Z,18.10
2023-04-27T22:31:33.233Z,18.63
2023-04-27T22:34:03.413Z,20.30
2023-04-27T22:36:31.667Z,17.80
2023-04-27T22:38:59.875Z,15.87
2023-04-27T22:41:27.817Z,15.37
2023-04-27T22:43:55.913Z,13.97
2023-04-27T22:46:24.073Z,14.67
2023-04-27T22:48:53.087Z,13.87
2023-04-27T22:51:23.889Z,13.00
2023-04-27T22:53:51.896Z,11.60
2023-04-27T22:56:20.577Z,11.93
2023-04-27T22:58:48.562Z,14.33
2023-04-27T23:01:16.932Z,13.47
2023-04-27T23:03:45.253Z,12.23
2023-04-27T23:06:16.313Z,13.43
2023-04-27T23:08:47.148Z,12.37
2023-04-27T23:11:15.536Z,12.70
2023-04-27T23:13:43.996Z,15.47
2023-04-27T23:16:12.116Z,17.30
2023-04-27T23:18:40.141Z,16.37
2023-04-27T23:21:08.110Z,18.33
2023-04-27T23:23:36.199Z,17.27
2023-04-27T23:26:12.274Z,17.13
2023-04-27T23:28:40.904Z,15.10
2023-04-27T23:31:09.278Z,16.17
2023-04-27T23:33:37.361Z,15.07
2023-04-27T23:36:05.950Z,16.03
2023-04-27T23:38:33.951Z,14.23
2023-04-27T23:41:01.865Z,14.47
2023-04-27T23:43:31.662Z,14.67
2023-04-27T23:45:59.743Z,13.40
2023-04-27T23:48:27.729Z,13.90
2023-04-27T23:51:00.811Z,13.43
2023-04-27T23:53:29.089Z,14.27
2023-04-27T23:55:58.341Z,13.50
2023-04-27T23:58:26.738Z,13.23
